Time;durP1;ratioP1;P1;durP2;ratioP2;P2;SDS_P1;SDS_P2;PMS_P1;PMS_P2;Temp;Humidity;BMP_temperature;BMP_pressure;BME280_temperature;BME280_humidity;BME280_pressure;Samples;Min_cycle;Max_cycle;Signal;HPM_P1;HPM_P2
2021/03/21 00:02:03;;;;;;;3.05;0.20;;;6.10;99.90;;;;;;5034412;28;20041;-75
2021/03/21 00:04:29;;;;;;;1.38;0.22;;;6.10;99.90;;;;;;5033998;28;20026;-75
2021/03/21 00:06:54;;;;;;;0.90;0.40;;;6.10;99.90;;;;;;5033536;28;20063;-76
2021/03/21 00:09:20;;;;;;;0.55;0.32;;;6.00;99.90;;;;;;5035501;28;20025;-77
2021/03/21 00:11:45;;;;;;;1.05;0.00;;;6.10;99.90;;;;;;5034055;28;20014;-77
2021/03/21 00:14:11;;;;;;;2.25;0.00;;;6.10;99.90;;;;;;5035490;28;20381;-75
2021/03/21 00:16:38;;;;;;;1.05;0.00;;;6.10;99.90;;;;;;5034222;28;20109;-73
2021/03/21 00:19:05;;;;;;;0.57;0.00;;;6.10;99.90;;;;;;5034320;28;20031;-75
2021/03/21 00:21:31;;;;;;;0.75;0.00;;;6.20;99.90;;;;;;5049947;23;20045;-77
2021/03/21 00:23:57;;;;;;;0.10;0.00;;;6.20;99.90;;;;;;5048016;22;20132;-77
2021/03/21 00:26:22;;;;;;;0.38;0.00;;;6.10;99.90;;;;;;5034109;28;20100;-74
2021/03/21 00:28:49;;;;;;;0.10;0.00;;;6.10;99.90;;;;;;5034862;28;20075;-73
2021/03/21 00:31:15;;;;;;;0.40;0.20;;;6.10;99.90;;;;;;5035272;28;20025;-75
2021/03/21 00:33:41;;;;;;;0.10;0.00;;;6.10;99.90;;;;;;5033496;28;20043;-75
2021/03/21 00:36:10;;;;;;;0.52;0.10;;;6.10;99.90;;;;;;5033956;28;20096;-75
2021/03/21 00:38:39;;;;;;;0.08;0.00;;;6.10;99.90;;;;;;5033292;28;20037;-76
2021/03/21 00:41:06;;;;;;;0.75;0.00;;;6.20;99.90;;;;;;5033003;28;20029;-75
2021/03/21 00:43:32;;;;;;;0.30;0.10;;;6.20;99.90;;;;;;5033738;28;20029;-76
2021/03/21 00:45:57;;;;;;;0.35;0.00;;;6.20;99.90;;;;;;5033262;28;20037;-76
2021/03/21 00:48:26;;;;;;;0.20;0.00;;;6.10;99.90;;;;;;5034678;28;20045;-76
2021/03/21 00:50:52;;;;;;;0.20;0.00;;;6.10;99.90;;;;;;5034858;28;20021;-77
2021/03/21 00:53:19;;;;;;;0.20;0.00;;;6.10;99.90;;;;;;5034284;28;20029;-78
2021/03/21 00:55:45;;;;;;;0.75;0.00;;;6.10;99.90;;;;;;5035858;28;20116;-78
2021/03/21 00:58:11;;;;;;;1.48;0.00;;;6.10;99.90;;;;;;5034785;28;20025;-77
2021/03/21 01:00:40;;;;;;;1.13;0.10;;;6.10;99.90;;;;;;5033746;28;20120;-75
2021/03/21 01:03:06;;;;;;;0.30;0.00;;;6.40;99.90;;;;;;5034643;28;20033;-74
2021/03/21 01:05:41;;;;;;;0.17;0.00;;;6.10;99.90;;;;;;5033748;28;20051;-74
2021/03/21 01:08:17;;;;;;;0.35;0.10;;;6.10;99.90;;;;;;5034345;28;20489;-76
2021/03/21 01:10:44;;;;;;;2.20;0.50;;;6.10;99.90;;;;;;5034498;28;20049;-76
2021/03/21 01:13:10;;;;;;;1.75;0.00;;;6.10;99.90;;;;;;5034277;28;20033;-76
2021/03/21 01:15:35;;;;;;;0.20;0.00;;;6.10;99.90;;;;;;5034116;28;20368;-74
2021/03/21 01:18:02;;;;;;;0.70;0.00;;;6.10;99.90;;;;;;5034199;28;20068;-77
2021/03/21 01:20:29;;;;;;;0.30;0.10;;;6.10;99.90;;;;;;5034237;28;20049;-77
2021/03/21 01:22:55;;;;;;;0.40;0.10;;;6.00;99.90;;;;;;5033854;28;20033;-74
2021/03/21 01:25:23;;;;;;;3.60;0.10;;;6.00;99.90;;;;;;5033411;28;20031;-74
2021/03/21 01:27:49;;;;;;;0.45;0.20;;;6.00;99.90;;;;;;5033890;28;20021;-76
2021/03/21 01:30:17;;;;;;;0.70;0.20;;;6.00;99.90;;;;;;5035181;28;20391;-75
2021/03/21 01:32:43;;;;;;;0.60;0.20;;;6.10;99.90;;;;;;5034042;28;20017;-75
2021/03/21 01:35:11;;;;;;;3.80;0.30;;;6.10;99.90;;;;;;5036219;28;20018;-75
2021/03/21 01:37:36;;;;;;;0.68;0.20;;;6.10;99.90;;;;;;5034154;28;20433;-75
2021/03/21 01:40:04;;;;;;;3.80;0.73;;;6.10;99.90;;;;;;5033348;28;20049;-75
2021/03/21 01:42:43;;;;;;;0.50;0.35;;;6.00;99.90;;;;;;5034010;28;20116;-77
2021/03/21 01:45:33;;;;;;;0.75;0.35;;;6.00;99.90;;;;;;5034286;28;20021;-74
2021/03/21 01:48:01;;;;;;;0.73;0.30;;;6.00;99.90;;;;;;5033892;28;20014;-76
2021/03/21 01:50:42;;;;;;;0.60;0.30;;;6.00;99.90;;;;;;5065197;23;20068;-75
2021/03/21 01:53:07;;;;;;;0.88;0.32;;;6.00;99.90;;;;;;5052965;28;20021;-76
2021/03/21 01:55:33;;;;;;;1.20;0.40;;;6.00;99.90;;;;;;5054811;28;20031;-77
2021/03/21 01:57:59;;;;;;;1.33;0.22;;;6.00;99.90;;;;;;5053816;28;20123;-77
2021/03/21 02:00:26;;;;;;;2.70;0.95;;;6.10;99.90;;;;;;5063046;22;20521;-74
2021/03/21 02:02:51;;;;;;;1.60;0.47;;;6.00;99.90;;;;;;5033703;28;20032;-75
2021/03/21 02:05:17;;;;;;;3.78;0.80;;;6.00;99.90;;;;;;5034121;28;20387;-75
2021/03/21 02:08:07;;;;;;;5.88;0.43;;;6.10;99.90;;;;;;5032543;28;20097;-77
2021/03/21 02:10:45;;;;;;;2.25;0.70;;;6.10;99.90;;;;;;5034389;28;20064;-74
2021/03/21 02:13:24;;;;;;;2.05;0.40;;;6.10;99.90;;;;;;5033699;28;20039;-75
2021/03/21 02:16:08;;;;;;;;;;;6.10;99.90;;;;;;5034664;28;20115;-76
2021/03/21 02:18:38;;;;;;;2.75;0.68;;;6.00;99.90;;;;;;5016747;28;20291;-74
2021/03/21 02:21:22;;;;;;;2.78;0.85;;;6.00;99.90;;;;;;5019920;28;20022;-75
2021/03/21 02:24:13;;;;;;;1.65;0.57;;;6.00;99.90;;;;;;5051494;23;20026;-74
2021/03/21 02:26:56;;;;;;;4.25;1.10;;;6.00;99.90;;;;;;5037785;28;20540;-75
2021/03/21 02:29:26;;;;;;;3.85;0.95;;;5.90;99.90;;;;;;5037494;28;20029;-74
2021/03/21 02:32:02;;;;;;;4.57;0.70;;;6.00;99.90;;;;;;5036462;28;20026;-75
2021/03/21 02:34:49;;;;;;;2.35;0.80;;;6.00;99.90;;;;;;5059613;23;20128;-76
2021/03/21 02:37:37;;;;;;;2.55;1.00;;;6.00;99.90;;;;;;5062945;28;20459;-76
2021/03/21 02:40:16;;;;;;;2.40;0.80;;;6.00;99.90;;;;;;5077868;28;20025;-75
2021/03/21 02:42:51;;;;;;;3.55;1.58;;;6.00;99.90;;;;;;5065847;28;20025;-76
2021/03/21 02:45:22;;;;;;;4.78;1.50;;;6.00;99.90;;;;;;5056720;28;20382;-76
2021/03/21 02:47:50;;;;;;;3.28;1.40;;;6.00;99.90;;;;;;5073017;28;20108;-76
2021/03/21 02:50:32;;;;;;;3.30;1.50;;;6.10;99.90;;;;;;5076991;28;20100;-76
2021/03/21 02:53:04;;;;;;;5.05;2.13;;;6.10;99.90;;;;;;5077416;28;20037;-76
2021/03/21 02:55:39;;;;;;;4.75;2.03;;;6.10;99.90;;;;;;5076910;28;20040;-76
2021/03/21 02:58:14;;;;;;;10.38;2.20;;;6.20;99.90;;;;;;5057924;28;20060;-77
2021/03/21 03:00:57;;;;;;;5.47;2.83;;;6.20;99.90;;;;;;5055629;28;20112;-77
2021/03/21 03:03:24;;;;;;;7.03;2.67;;;6.20;99.90;;;;;;5057191;28;20024;-76
2021/03/21 03:05:58;;;;;;;8.48;2.45;;;6.20;99.90;;;;;;5056337;28;20422;-76
2021/03/21 03:08:43;;;;;;;10.38;3.50;;;6.20;99.90;;;;;;5055266;28;20032;-76
2021/03/21 03:13:43;;;;;;;8.73;3.63;;;6.30;99.90;;;;;;5053678;28;20041;-76
2021/03/21 03:16:32;;;;;;;7.07;2.97;;;6.30;99.90;;;;;;5053925;28;20070;-77
2021/03/21 03:19:29;;;;;;;12.75;3.70;;;6.30;99.90;;;;;;5024526;28;20083;-77
2021/03/21 03:22:23;;;;;;;10.48;3.60;;;6.30;99.90;;;;;;5016053;28;20479;-75
2021/03/21 03:25:00;;;;;;;12.00;4.60;;;6.30;99.90;;;;;;5033966;28;20029;-75
2021/03/21 03:27:31;;;;;;;11.18;4.53;;;6.30;99.90;;;;;;5033701;28;20030;-76
2021/03/21 03:30:26;;;;;;;11.52;5.00;;;6.30;99.90;;;;;;5033399;28;20022;-76
2021/03/21 03:32:52;;;;;;;9.85;4.43;;;6.30;99.90;;;;;;5032564;28;20111;-77
2021/03/21 03:35:20;;;;;;;11.55;4.22;;;6.30;99.90;;;;;;5034866;28;20022;-76
2021/03/21 03:37:45;;;;;;;11.82;4.13;;;6.30;99.90;;;;;;5034606;28;20107;-76
2021/03/21 03:40:12;;;;;;;12.57;4.70;;;6.30;99.90;;;;;;5034318;28;20022;-76
2021/03/21 03:42:47;;;;;;;18.15;5.22;;;6.30;99.90;;;;;;5034488;28;20025;-77
2021/03/21 03:45:34;;;;;;;12.02;6.38;;;6.30;99.90;;;;;;5033160;28;20026;-77
2021/03/21 03:48:23;;;;;;;12.82;5.43;;;6.30;99.90;;;;;;4965318;23;2243705;-74
2021/03/21 03:51:01;;;;;;;21.60;5.30;;;6.30;99.90;;;;;;5045817;23;20494;-75
2021/03/21 03:54:07;;;;;;;11.27;4.55;;;6.30;99.90;;;;;;4998718;28;20026;-77
2021/03/21 03:57:03;;;;;;;17.05;5.43;;;6.20;99.90;;;;;;5003288;28;20026;-75
2021/03/21 03:59:58;;;;;;;11.95;4.80;;;6.40;99.90;;;;;;5037064;28;20021;-74
2021/03/21 04:02:33;;;;;;;12.35;5.18;;;6.40;99.90;;;;;;5036009;28;20101;-77
2021/03/21 04:05:10;;;;;;;11.80;4.45;;;6.40;99.90;;;;;;5036075;28;20060;-76
2021/03/21 04:07:44;;;;;;;11.07;4.72;;;6.40;99.90;;;;;;5017978;28;20057;-76
2021/03/21 04:10:15;;;;;;;10.68;4.50;;;6.40;99.90;;;;;;5018270;28;20486;-75
2021/03/21 04:13:15;;;;;;;9.02;3.40;;;6.40;99.90;;;;;;5035603;28;20033;-74
2021/03/21 04:15:46;;;;;;;10.50;3.30;;;6.40;99.90;;;;;;5030700;28;20458;-75
2021/03/21 04:18:35;;;;;;;13.00;4.07;;;6.50;99.90;;;;;;5062837;23;20402;-73
2021/03/21 04:21:07;;;;;;;9.02;3.33;;;6.50;99.90;;;;;;5054178;28;20056;-76
2021/03/21 04:23:40;;;;;;;6.10;2.72;;;6.50;99.90;;;;;;5081716;22;20053;-76
2021/03/21 04:26:10;;;;;;;8.05;3.08;;;6.60;99.90;;;;;;5035137;28;20026;-75
2021/03/21 04:28:43;;;;;;;7.78;2.40;;;6.60;99.90;;;;;;5035003;28;20505;-75
2021/03/21 04:31:12;;;;;;;12.00;2.88;;;6.60;99.90;;;;;;5035161;28;20032;-75
2021/03/21 04:34:00;;;;;;;8.93;1.63;;;6.60;99.90;;;;;;5034927;28;20021;-76
2021/03/21 04:36:29;;;;;;;5.53;1.23;;;6.70;99.90;;;;;;5034117;28;20053;-76
2021/03/21 04:39:26;;;;;;;2.22;0.63;;;6.70;99.90;;;;;;5034125;28;20478;-76
2021/03/21 04:42:01;;;;;;;3.20;0.35;;;6.70;99.90;;;;;;5029676;28;20077;-77
2021/03/21 04:44:49;;;;;;;4.57;0.45;;;6.70;99.90;;;;;;5034127;28;20072;-75
2021/03/21 04:47:25;;;;;;;6.00;1.33;;;6.70;99.90;;;;;;5014929;28;20447;-74
2021/03/21 04:49:55;;;;;;;9.00;0.70;;;6.60;99.90;;;;;;5015749;28;20026;-74
2021/03/21 04:52:39;;;;;;;6.80;0.60;;;6.60;99.90;;;;;;5033809;28;20548;-74
2021/03/21 04:55:11;;;;;;;7.07;0.22;;;6.60;99.90;;;;;;5034746;28;20033;-74
2021/03/21 04:57:48;;;;;;;8.20;0.40;;;6.60;99.90;;;;;;5034564;28;20033;-74
2021/03/21 05:00:25;;;;;;;8.13;0.50;;;6.60;99.90;;;;;;5034837;28;20034;-75
2021/03/21 05:02:56;;;;;;;6.18;0.98;;;6.60;99.90;;;;;;5016289;28;20034;-75
2021/03/21 05:05:36;;;;;;;4.65;0.30;;;6.70;99.90;;;;;;5033950;28;20018;-76
2021/03/21 05:08:09;;;;;;;2.08;0.20;;;6.70;99.90;;;;;;5015952;28;20026;-76
2021/03/21 05:10:41;;;;;;;4.93;0.20;;;6.70;99.90;;;;;;5017625;28;20017;-74
2021/03/21 05:13:28;;;;;;;3.60;0.30;;;6.70;99.90;;;;;;5017027;28;20044;-75
2021/03/21 05:15:59;;;;;;;6.40;0.30;;;6.70;99.90;;;;;;5016456;28;20494;-75
2021/03/21 05:19:13;;;;;;;6.72;0.60;;;6.70;99.90;;;;;;5016774;28;20028;-78
2021/03/21 05:21:52;;;;;;;5.60;0.65;;;6.70;99.90;;;;;;5012741;28;20037;-73
2021/03/21 05:24:34;;;;;;;6.32;0.57;;;6.60;99.90;;;;;;5016572;28;20033;-73
2021/03/21 05:27:20;;;;;;;4.72;0.10;;;6.60;99.90;;;;;;4996876;28;20030;-73
2021/03/21 05:32:33;;;;;;;9.63;0.73;;;6.70;99.90;;;;;;5012813;28;20038;-75
2021/03/21 05:34:59;;;;;;;3.72;0.35;;;6.70;99.90;;;;;;5014700;28;20022;-77
2021/03/21 05:37:36;;;;;;;2.97;0.10;;;6.70;99.90;;;;;;5013967;28;20041;-74
2021/03/21 05:40:02;;;;;;;5.72;0.25;;;6.70;99.90;;;;;;5012943;28;20083;-76
2021/03/21 05:43:12;;;;;;;4.82;0.20;;;6.70;99.90;;;;;;5039800;23;20136;-75
2021/03/21 05:46:08;;;;;;;3.30;0.25;;;6.70;99.90;;;;;;5033515;28;20065;-76
2021/03/21 05:48:39;;;;;;;2.88;0.15;;;6.70;99.90;;;;;;5016452;28;20105;-75
2021/03/21 05:51:10;;;;;;;6.95;0.20;;;6.70;99.90;;;;;;5033844;28;20025;-76
2021/03/21 05:53:42;;;;;;;4.38;0.38;;;6.70;99.90;;;;;;5034102;28;20037;-78
2021/03/21 05:56:26;;;;;;;8.02;0.60;;;6.60;99.90;;;;;;5033810;28;20033;-74
2021/03/21 05:59:11;;;;;;;7.80;0.10;;;6.60;99.90;;;;;;5033658;28;20029;-74
2021/03/21 06:02:05;;;;;;;6.93;0.20;;;6.70;99.90;;;;;;5033979;28;20029;-76
2021/03/21 06:04:43;;;;;;;5.32;0.30;;;6.70;99.90;;;;;;5033893;28;20029;-75
2021/03/21 06:07:27;;;;;;;6.03;0.20;;;6.70;99.90;;;;;;5033966;28;20029;-76
2021/03/21 06:10:23;;;;;;;9.13;0.25;;;6.70;99.90;;;;;;5014563;28;20049;-74
2021/03/21 06:13:16;;;;;;;4.50;0.10;;;6.70;99.90;;;;;;5013661;28;20068;-73
2021/03/21 06:16:19;;;;;;;5.38;0.22;;;6.70;99.90;;;;;;5015318;28;20029;-74
2021/03/21 06:19:13;;;;;;;6.60;0.05;;;6.70;99.90;;;;;;5033235;28;20509;-75
2021/03/21 06:21:53;;;;;;;4.93;0.08;;;6.70;99.90;;;;;;5015760;28;20045;-73
2021/03/21 06:24:30;;;;;;;6.97;0.77;;;8.20;99.90;;;;;;5016105;28;20513;-73
2021/03/21 06:27:04;;;;;;;9.82;0.82;;;6.70;99.90;;;;;;5033727;28;20029;-72
2021/03/21 06:30:00;;;;;;;7.32;0.25;;;6.80;99.90;;;;;;5033747;28;20093;-74
2021/03/21 06:33:14;;;;;;;9.25;0.95;;;6.80;99.90;;;;;;5015907;28;20049;-74
2021/03/21 06:35:42;;;;;;;7.20;0.70;;;6.80;99.90;;;;;;4942614;28;20029;-73
2021/03/21 06:38:17;;;;;;;3.58;0.05;;;6.80;99.90;;;;;;5033181;28;20601;-74
2021/03/21 06:40:59;;;;;;;3.88;0.22;;;6.80;99.90;;;;;;5033047;28;20033;-73
2021/03/21 06:44:04;;;;;;;7.28;0.10;;;6.80;99.90;;;;;;5015448;28;20033;-73
2021/03/21 06:46:57;;;;;;;12.77;1.35;;;6.90;99.90;;;;;;5032413;28;20028;-75
2021/03/21 06:49:38;;;;;;;7.10;1.13;;;6.90;99.90;;;;;;5033260;28;20034;-75
2021/03/21 06:52:30;;;;;;;9.80;0.50;;;7.00;99.90;;;;;;5032979;28;20025;-76
2021/03/21 06:55:07;;;;;;;9.13;0.22;;;7.00;99.90;;;;;;5059610;22;20046;-75
2021/03/21 06:58:07;;;;;;;7.75;0.38;;;7.00;99.90;;;;;;5032429;28;20037;-75
2021/03/21 07:00:46;;;;;;;4.72;0.17;;;7.00;99.90;;;;;;5044993;23;20037;-76
2021/03/21 07:03:29;;;;;;;16.80;1.35;;;7.00;99.90;;;;;;5034609;28;20030;-77
2021/03/21 07:06:07;;;;;;;6.55;0.57;;;7.10;99.90;;;;;;5066093;23;20036;-74
2021/03/21 07:08:52;;;;;;;6.70;0.30;;;7.10;99.90;;;;;;5054754;28;20477;-74
2021/03/21 07:11:36;;;;;;;7.80;0.65;;;7.10;99.90;;;;;;5054534;28;20111;-74
2021/03/21 07:14:34;;;;;;;6.55;0.65;;;7.20;99.90;;;;;;5054814;28;20071;-74
2021/03/21 07:17:14;;;;;;;3.20;0.08;;;7.20;99.90;;;;;;5051646;28;20028;-74
2021/03/21 07:20:14;;;;;;;7.15;0.38;;;7.30;99.90;;;;;;5036973;28;20032;-73
2021/03/21 07:23:01;;;;;;;11.77;1.02;;;7.30;99.90;;;;;;5032150;28;20090;-74
2021/03/21 07:25:29;;;;;;;7.97;0.70;;;7.40;99.90;;;;;;5054256;28;20037;-75
2021/03/21 07:28:24;;;;;;;11.65;0.43;;;7.40;99.90;;;;;;5056227;28;20021;-75
2021/03/21 07:31:20;;;;;;;5.32;0.45;;;7.50;99.90;;;;;;5051614;28;20120;-74
2021/03/21 07:33:52;;;;;;;4.85;0.60;;;7.50;99.90;;;;;;5055746;28;20024;-74
2021/03/21 07:36:45;;;;;;;13.52;0.75;;;7.60;99.90;;;;;;5054089;28;20375;-75
2021/03/21 07:42:01;;;;;;;5.93;0.17;;;7.60;99.90;;;;;;5014438;28;20054;-76
2021/03/21 07:44:41;;;;;;;7.20;0.95;;;7.60;99.90;;;;;;5016143;28;20058;-74
2021/03/21 07:47:19;;;;;;;6.07;0.40;;;7.60;99.90;;;;;;5008248;28;20030;-78
2021/03/21 07:49:52;;;;;;;9.38;0.30;;;7.60;99.90;;;;;;4996490;28;20030;-77
2021/03/21 07:52:54;;;;;;;6.70;0.00;;;7.60;99.90;;;;;;4996552;28;20451;-74
2021/03/21 07:55:42;;;;;;;7.28;0.57;;;7.70;99.90;;;;;;4996735;28;20053;-77
2021/03/21 07:58:31;;;;;;;12.45;1.02;;;7.70;99.90;;;;;;4996974;28;20026;-76
2021/03/21 08:01:00;;;;;;;8.95;0.75;;;7.70;99.90;;;;;;5075934;23;20083;-77
2021/03/21 08:03:37;;;;;;;;;;;7.80;99.30;;;;;;5052154;22;20050;-77
2021/03/21 08:06:18;;;;;;;12.45;0.50;;;8.20;99.60;;;;;;5036611;28;19913;-77
2021/03/21 08:09:00;;;;;;;8.70;0.77;;;7.80;99.90;;;;;;5038754;28;20049;-77
2021/03/21 08:11:33;;;;;;;12.43;0.70;;;7.70;97.70;;;;;;5038938;28;20120;-76
2021/03/21 08:14:14;;;;;;;12.77;0.68;;;11.10;99.00;;;;;;5037090;28;20029;-77
2021/03/21 08:16:47;;;;;;;17.77;0.82;;;7.20;96.20;;;;;;5036643;28;20116;-76
2021/03/21 08:19:25;;;;;;;9.88;1.20;;;7.60;94.60;;;;;;5036340;28;20390;-73
2021/03/21 08:21:56;;;;;;;12.73;0.95;;;7.60;96.90;;;;;;5068014;23;20037;-75
2021/03/21 08:24:29;;;;;;;16.35;2.25;;;6.40;94.10;;;;;;5056443;28;20032;-73
2021/03/21 08:26:55;;;;;;;14.07;0.65;;;8.50;95.30;;;;;;5055979;28;20020;-75
2021/03/21 08:29:25;;;;;;;18.05;1.25;;;6.40;96.40;;;;;;5067951;22;20028;-73
2021/03/21 08:32:13;;;;;;;7.85;0.20;;;7.60;94.90;;;;;;5036789;28;20022;-75
2021/03/21 08:34:44;;;;;;;4.90;0.40;;;7.60;97.40;;;;;;5037331;28;20028;-77
2021/03/21 08:37:21;;;;;;;11.88;0.93;;;7.60;97.10;;;;;;5045229;23;20046;-74
2021/03/21 08:39:58;;;;;;;15.77;0.73;;;7.40;96.80;;;;;;5018365;28;20022;-73
2021/03/21 08:42:37;;;;;;;27.75;3.20;;;7.70;96.90;;;;;;5015124;28;20515;-75
2021/03/21 08:45:29;;;;;;;9.48;0.77;;;7.90;98.40;;;;;;5044703;23;20133;-76
2021/03/21 08:48:02;;;;;;;15.35;1.08;;;7.70;98.80;;;;;;5036419;28;20431;-75
2021/03/21 08:50:45;;;;;;;9.95;0.60;;;7.90;95.90;;;;;;5081677;23;20505;-76
2021/03/21 08:53:35;;;;;;;13.65;1.35;;;8.90;95.50;;;;;;5030702;23;20080;-75
2021/03/21 08:58:40;;;;;;;14.18;1.25;;;7.90;95.80;;;;;;5063776;22;20058;-77
2021/03/21 09:06:31;;;;;;;10.35;0.20;;;8.00;95.30;;;;;;5014420;28;20565;-76
2021/03/21 09:09:22;;;;;;;12.65;1.90;;;7.90;96.70;;;;;;4999215;28;20494;-77
2021/03/21 09:11:51;;;;;;;12.60;1.27;;;8.70;96.80;;;;;;4999397;28;20033;-78
2021/03/21 09:14:23;;;;;;;16.67;2.13;;;7.80;98.40;;;;;;4999508;28;20030;-77
2021/03/21 09:16:57;;;;;;;14.30;1.67;;;7.90;99.60;;;;;;4997746;28;20034;-77
2021/03/21 09:19:27;;;;;;;11.25;0.85;;;8.70;99.90;;;;;;5000272;28;20022;-78
2021/03/21 09:21:53;;;;;;;20.45;1.25;;;8.00;99.70;;;;;;4995677;28;20058;-77
2021/03/21 09:24:36;;;;;;;16.25;1.17;;;8.20;99.90;;;;;;4983660;28;20034;-78
2021/03/21 09:27:34;;;;;;;16.20;1.88;;;8.40;97.00;;;;;;4995881;28;20047;-77
2021/03/21 09:30:18;;;;;;;17.17;0.63;;;8.50;94.70;;;;;;4998236;28;20026;-78
2021/03/21 09:32:44;;;;;;;19.40;0.70;;;8.60;90.50;;;;;;4999518;28;20018;-77
2021/03/21 09:35:28;;;;;;;19.05;1.73;;;8.70;92.00;;;;;;4997139;28;20049;-77
2021/03/21 09:37:56;;;;;;;20.23;1.33;;;8.70;93.40;;;;;;4996695;28;20092;-76
2021/03/21 09:40:31;;;;;;;17.80;2.28;;;8.70;93.20;;;;;;4994908;28;20384;-76
2021/03/21 09:42:57;;;;;;;12.00;0.45;;;8.70;94.30;;;;;;4993201;28;20030;-75
2021/03/21 09:45:23;;;;;;;10.93;1.55;;;8.70;95.40;;;;;;4993226;28;20077;-76
2021/03/21 09:47:59;;;;;;;14.40;1.50;;;8.60;94.40;;;;;;4993189;28;20026;-76
2021/03/21 09:53:23;;;;;;;15.25;2.08;;;8.60;93.10;;;;;;5012015;28;20104;-76
2021/03/21 09:56:00;;;;;;;16.38;1.00;;;8.60;92.30;;;;;;5014168;28;20479;-75
2021/03/21 09:58:44;;;;;;;8.32;1.30;;;8.50;91.40;;;;;;5014345;28;20556;-76
2021/03/21 10:01:54;;;;;;;16.90;1.40;;;8.40;90.90;;;;;;5013580;28;20101;-76
2021/03/21 10:05:04;;;;;;;19.13;1.55;;;8.20;90.70;;;;;;5013707;28;20118;-76
2021/03/21 10:08:08;;;;;;;27.70;1.15;;;8.30;92.20;;;;;;5013237;28;20022;-76
2021/03/21 10:10:53;;;;;;;17.15;0.95;;;8.50;91.40;;;;;;5012438;28;20072;-78
2021/03/21 10:13:31;;;;;;;21.88;2.08;;;8.60;89.40;;;;;;5014617;28;20101;-77
2021/03/21 10:16:39;;;;;;;11.30;2.00;;;8.80;85.00;;;;;;5014047;28;20049;-76
2021/03/21 10:19:08;;;;;;;13.95;1.27;;;8.90;88.60;;;;;;5009768;28;20037;-77
2021/03/21 10:21:43;;;;;;;13.32;1.25;;;8.70;84.80;;;;;;5013666;28;20384;-75
2021/03/21 10:24:21;;;;;;;8.05;1.08;;;8.70;84.40;;;;;;5011728;28;20108;-76
2021/03/21 10:27:22;;;;;;;18.80;1.45;;;8.80;82.30;;;;;;5011553;28;20026;-76
2021/03/21 10:30:09;;;;;;;14.95;1.08;;;8.80;82.50;;;;;;5013638;28;20097;-76
2021/03/21 10:32:39;;;;;;;14.48;1.15;;;8.90;83.00;;;;;;5013277;28;20029;-76
2021/03/21 10:35:17;;;;;;;12.48;1.13;;;9.00;79.70;;;;;;5013320;28;20498;-76
2021/03/21 10:37:42;;;;;;;19.52;3.33;;;9.00;83.50;;;;;;5014371;28;20030;-76
2021/03/21 10:40:13;;;;;;;9.73;0.95;;;8.90;80.90;;;;;;5015592;28;20034;-76
2021/03/21 10:42:54;;;;;;;15.20;1.40;;;8.80;83.20;;;;;;5016908;28;20487;-76
2021/03/21 10:45:35;;;;;;;17.90;1.08;;;8.80;83.50;;;;;;5016935;28;20044;-75
2021/03/21 10:48:02;;;;;;;15.20;1.27;;;8.70;83.50;;;;;;5016094;28;20050;-75
2021/03/21 10:50:28;;;;;;;17.85;0.93;;;9.20;85.40;;;;;;5032227;23;20523;-74
2021/03/21 10:53:29;;;;;;;7.32;0.82;;;8.70;85.70;;;;;;5051755;23;20042;-77
2021/03/21 10:56:14;;;;;;;15.02;2.83;;;8.80;82.80;;;;;;5038866;28;20037;-76
2021/03/21 10:59:00;;;;;;;21.35;2.28;;;8.90;81.00;;;;;;5037637;28;20025;-77
2021/03/21 11:01:31;;;;;;;15.43;1.75;;;8.90;78.90;;;;;;5033858;23;20581;-75
2021/03/21 11:04:16;;;;;;;17.80;2.72;;;8.70;81.70;;;;;;4998277;28;20499;-78
2021/03/21 11:06:57;;;;;;;10.38;0.65;;;8.70;83.40;;;;;;5041095;23;20132;-79
2021/03/21 11:09:33;;;;;;;20.00;0.85;;;8.60;81.80;;;;;;5018743;28;20336;-77
2021/03/21 11:12:05;;;;;;;15.95;1.73;;;8.50;82.90;;;;;;5017321;28;20022;-78
2021/03/21 11:14:36;;;;;;;13.55;1.35;;;8.50;80.90;;;;;;5019245;28;20029;-78
2021/03/21 11:17:22;;;;;;;18.45;1.08;;;8.60;80.90;;;;;;5034501;23;20782;-75
2021/03/21 11:19:57;;;;;;;18.45;1.30;;;8.70;82.10;;;;;;5049612;23;20442;-76
2021/03/21 11:22:27;;;;;;;14.90;1.35;;;8.50;81.70;;;;;;5036355;28;20029;-76
2021/03/21 11:24:53;;;;;;;15.32;1.20;;;8.70;81.80;;;;;;5019147;28;20033;-75
2021/03/21 11:27:29;;;;;;;15.60;2.38;;;8.60;81.40;;;;;;5019032;28;20021;-77
2021/03/21 11:30:08;;;;;;;15.98;1.23;;;8.50;82.40;;;;;;5036165;28;20536;-75
2021/03/21 11:32:34;;;;;;;17.45;1.65;;;8.50;83.10;;;;;;5018300;28;20493;-75
2021/03/21 11:35:12;;;;;;;20.77;1.20;;;8.40;82.50;;;;;;5018033;28;20029;-77
2021/03/21 11:37:43;;;;;;;32.35;1.48;;;8.40;81.10;;;;;;5036797;28;20398;-78
2021/03/21 11:40:22;;;;;;;21.02;1.30;;;8.30;83.50;;;;;;5018192;28;20398;-76
2021/03/21 11:43:03;;;;;;;13.88;0.88;;;8.40;80.00;;;;;;5035672;28;20029;-75
2021/03/21 11:45:31;;;;;;;18.58;1.88;;;8.50;79.80;;;;;;5018231;28;20116;-75
2021/03/21 11:48:10;;;;;;;10.88;1.17;;;8.60;80.60;;;;;;5036046;28;20029;-78
2021/03/21 11:50:39;;;;;;;9.02;0.88;;;8.70;79.80;;;;;;5018892;28;20120;-77
2021/03/21 11:53:06;;;;;;;;;;;8.80;79.80;;;;;;5037160;28;20022;-74
2021/03/21 11:55:42;;;;;;;24.15;1.42;;;8.90;80.40;;;;;;5072068;23;19921;-74
2021/03/21 11:58:25;;;;;;;14.23;2.22;;;9.00;78.00;;;;;;5034144;28;20021;-75
2021/03/21 12:01:01;;;;;;;14.48;1.20;;;9.00;78.40;;;;;;5035521;28;20041;-75
2021/03/21 12:03:27;;;;;;;23.73;1.42;;;8.90;79.20;;;;;;5035347;28;20025;-73
2021/03/21 12:06:06;;;;;;;11.43;1.02;;;8.80;79.10;;;;;;5035181;28;20036;-73
2021/03/21 12:08:39;;;;;;;15.35;1.35;;;8.80;78.70;;;;;;5034257;28;20029;-73
2021/03/21 12:11:19;;;;;;;31.83;2.58;;;8.60;79.70;;;;;;5034654;28;20104;-72
2021/03/21 12:13:45;;;;;;;18.70;2.53;;;8.60;79.10;;;;;;5035819;28;20034;-73
2021/03/21 12:16:35;;;;;;;14.75;2.38;;;8.50;79.90;;;;;;5035151;28;20041;-73
2021/03/21 12:19:03;;;;;;;10.95;0.70;;;8.50;81.20;;;;;;5035967;28;20028;-75
2021/03/21 12:21:29;;;;;;;16.17;1.27;;;8.60;79.00;;;;;;5035481;28;20026;-75
2021/03/21 12:23:58;;;;;;;14.27;1.20;;;8.60;77.50;;;;;;5079319;22;20033;-75
2021/03/21 12:26:33;;;;;;;13.25;1.20;;;8.50;80.30;;;;;;5053746;28;20525;-75
2021/03/21 12:29:04;;;;;;;18.17;1.48;;;8.50;79.70;;;;;;5075148;28;20094;-72
2021/03/21 12:31:37;;;;;;;20.63;2.03;;;8.50;80.00;;;;;;5074837;28;20016;-73
2021/03/21 12:34:44;;;;;;;11.63;0.57;;;8.50;80.40;;;;;;5073824;28;20516;-76
2021/03/21 12:37:41;;;;;;;15.45;1.35;;;8.60;80.70;;;;;;5074165;28;20107;-78
2021/03/21 12:40:18;;;;;;;15.13;1.20;;;8.80;80.20;;;;;;5055864;28;20036;-76
2021/03/21 12:42:48;;;;;;;19.42;1.85;;;8.90;79.70;;;;;;5055471;28;20021;-77
2021/03/21 12:45:26;;;;;;;14.05;1.90;;;8.90;80.30;;;;;;5053896;28;20021;-74
2021/03/21 12:47:55;;;;;;;22.42;2.05;;;9.00;79.30;;;;;;5053129;28;20023;-75
2021/03/21 12:50:38;;;;;;;15.98;0.50;;;9.10;80.40;;;;;;5055111;28;20105;-78
2021/03/21 12:53:10;;;;;;;15.52;1.00;;;9.10;78.30;;;;;;5067834;28;20025;-73
2021/03/21 12:55:36;;;;;;;27.02;2.65;;;9.10;77.80;;;;;;5073417;28;20561;-73
2021/03/21 12:58:03;;;;;;;26.52;2.38;;;9.00;77.50;;;;;;5074310;28;20366;-77
2021/03/21 13:00:34;;;;;;;12.82;0.70;;;9.00;78.60;;;;;;5073734;28;20016;-74
2021/03/21 13:03:05;;;;;;;15.65;2.22;;;9.00;79.30;;;;;;5072482;28;20048;-74
2021/03/21 13:05:38;;;;;;;17.98;1.35;;;8.90;78.70;;;;;;5078662;23;20051;-77
2021/03/21 13:08:06;;;;;;;14.43;1.60;;;8.90;79.40;;;;;;5034336;28;20089;-75
2021/03/21 13:10:35;;;;;;;22.30;2.47;;;8.90;80.20;;;;;;5034409;28;20021;-75
2021/03/21 13:13:01;;;;;;;;;;;8.80;79.30;;;;;;5035572;28;20030;-72
2021/03/21 13:15:27;;;;;;;18.70;1.55;;;8.90;80.90;;;;;;5033533;28;19955;-75
2021/03/21 13:17:53;;;;;;;9.60;0.95;;;8.80;81.80;;;;;;5034130;28;20036;-77
2021/03/21 13:20:21;;;;;;;14.02;1.50;;;8.70;81.00;;;;;;5037626;28;20024;-74
2021/03/21 13:22:48;;;;;;;17.17;1.08;;;8.70;82.90;;;;;;5052987;28;20033;-73
2021/03/21 13:25:22;;;;;;;17.08;1.55;;;8.70;78.30;;;;;;5052585;28;20039;-75
2021/03/21 13:27:57;;;;;;;10.30;1.60;;;8.70;78.30;;;;;;5052946;28;20017;-76
2021/03/21 13:30:26;;;;;;;13.88;1.33;;;8.60;79.70;;;;;;5054123;28;20051;-75
2021/03/21 13:32:53;;;;;;;20.00;2.22;;;8.70;79.60;;;;;;5054027;28;20032;-78
2021/03/21 13:35:24;;;;;;;15.02;1.00;;;8.60;78.10;;;;;;5053003;28;20478;-75
2021/03/21 13:37:50;;;;;;;12.93;0.65;;;8.70;79.20;;;;;;5054149;28;20073;-78
2021/03/21 13:40:23;;;;;;;12.30;1.80;;;8.70;78.00;;;;;;5052938;28;20048;-74
2021/03/21 13:42:48;;;;;;;16.98;0.80;;;8.80;80.90;;;;;;5054387;28;20474;-76
2021/03/21 13:45:15;;;;;;;12.57;1.13;;;8.90;80.60;;;;;;5053686;28;20040;-76
2021/03/21 13:47:41;;;;;;;15.18;1.17;;;9.00;78.50;;;;;;5052188;28;20100;-75
2021/03/21 13:50:08;;;;;;;11.80;1.27;;;9.00;77.40;;;;;;5053712;28;20075;-77
2021/03/21 13:52:34;;;;;;;19.60;1.33;;;8.90;77.40;;;;;;5053862;28;20057;-76
2021/03/21 13:54:59;;;;;;;20.92;2.03;;;8.80;80.00;;;;;;5052834;28;20052;-75
2021/03/21 13:57:25;;;;;;;18.45;1.75;;;8.90;80.60;;;;;;5054711;28;20033;-76
2021/03/21 13:59:51;;;;;;;7.10;0.57;;;8.70;80.30;;;;;;5052444;28;20398;-74
2021/03/21 14:02:17;;;;;;;18.33;0.80;;;8.70;80.20;;;;;;5053653;28;20119;-76